済州国際空港の過去48時間の天気

済州国際空港 (Cheju International Airport)

現在時刻: 9/26 05:25 KST (9/25 20:25 UTC) 以下の時間は現地時間です。

過去48時間のMETAR気象情報
時間 風向 風速(m/s) 視程 気温(℃) 湿度(%) 気圧(hPa) 天気現象
26 05:00 南南東 2 10km以上 20 68 1015
26 04:00 南南東 2 10km以上 20 60 1015
26 03:00 南東 3 10km以上 21 56 1016
26 02:00 南東 2 10km以上 20 64 1016
26 01:00 南南東 3 10km以上 20 73 1016
26 00:00 南南東 2 10km以上 21 73 1016
25 23:00 東南東 3 10km以上 21 73 1016
25 22:00 東南東 3 10km以上 22 73 1016
25 21:00 東南東 3 10km以上 22 73 1016
25 20:00 4 10km以上 22 73 1016
25 19:00 5 10km以上 22 73 1015
25 18:00 東北東 5 10km以上 22 73 1015
25 17:00 東北東 6 10km以上 23 69 1015
25 16:00 東北東 7 10km以上 23 69 1014
25 15:00 東北東 6 10km以上 23 69 1015 弱い雨
25 14:00 東北東 7 10km以上 24 65 1015
25 13:00 東北東 7 10km以上 24 65 1015
25 12:00 東北東 7 10km以上 25 61 1015
25 11:00 東北東 7 10km以上 24 65 1016
25 10:00 7 10km以上 24 61 1016
25 09:00 5 10km以上 23 65 1016
25 08:00 東南東 3 10km以上 22 69 1016
25 07:00 南南東 3 10km以上 21 69 1016
25 06:00 南東 3 10km以上 20 68 1015
25 05:00 南東 3 10km以上 20 73 1014
25 04:00 南南東 3 10km以上 20 68 1015
25 03:00 南東 3 10km以上 20 68 1015
25 02:00 南南東 3 10km以上 20 68 1015
25 01:00 南東 3 10km以上 20 64 1015
25 00:00 東南東 3 10km以上 20 60 1016
24 23:00 2 10km以上 21 64 1016
24 22:00 北北東 5 10km以上 22 65 1016
24 21:00 5 10km以上 22 65 1016
24 20:00 1 10km以上 21 49 1016
24 19:00 2 10km以上 22 46 1016
24 18:00 1 10km以上 22 50 1015
24 17:00 東北東 2 10km以上 22 50 1015
24 16:00 2 10km以上 22 50 1016
24 15:00 北東 2 10km以上 21 53 1016
24 14:00 北北東 3 10km以上 22 53 1017
24 13:00 北北東 3 10km以上 22 53 1017
24 12:00 北東 2 10km以上 21 53 1018
24 11:00 北北東 3 10km以上 21 49 1018
24 10:00 北東 3 10km以上 20 56 1018
24 09:00 北東 3 10km以上 21 56 1018
24 08:00 北東 4 10km以上 19 64 1018
24 07:00 北東 4 10km以上 19 64 1017
24 06:00 北東 4 10km以上 19 68 1017
RKPC 252000Z 15004KT 9999 FEW025 BKN140 20/14 Q1015 NOSIG
RKPC 251900Z 15004KT 9999 FEW025 BKN150 20/12 Q1015 NOSIG
RKPC 251800Z 13005KT 9999 FEW025 BKN150 21/12 Q1016 NOSIG
RKPC 251700Z 14004KT 9999 FEW025 BKN150 20/13 Q1016 NOSIG
RKPC 251600Z 15006KT 9999 FEW025 BKN150 20/15 Q1016 NOSIG
RKPC 251500Z 15004KT 9999 FEW025 BKN150 21/16 Q1016 NOSIG
RKPC 251400Z 12005KT 9999 FEW025 BKN150 21/16 Q1016 NOSIG
RKPC 251300Z 11006KT 9999 FEW025 BKN150 22/17 Q1016 NOSIG
RKPC 251200Z 11006KT 9999 FEW025 BKN150 22/17 Q1016 NOSIG
RKPC 251100Z 10008KT 9999 FEW025 SCT130 BKN200 22/17 Q1016 NOSIG
RKPC 251000Z 09010KT 9999 FEW025 BKN150 BKN200 22/17 Q1015 NOSIG
RKPC 250900Z 07009KT 9999 FEW025 BKN150 BKN200 22/17 Q1015 NOSIG
RKPC 250800Z 06011KT 9999 FEW025 BKN200 23/17 Q1015 NOSIG
RKPC 250700Z 07013KT CAVOK 23/17 Q1014 NOSIG
RKPC 250600Z 06011KT 9999 -RA NSC 23/17 Q1015 BECMG NSW
RKPC 250500Z 07014KT CAVOK 24/17 Q1015 NOSIG
RKPC 250400Z 07014KT CAVOK 24/17 Q1015 NOSIG
RKPC 250300Z 06014KT CAVOK 25/17 Q1015 NOSIG
RKPC 250200Z 06013KT CAVOK 24/17 Q1016 NOSIG
RKPC 250100Z 08013KT 9999 FEW030 BKN140 BKN200 24/16 Q1016 NOSIG
RKPC 250000Z 09009KT 9999 SCT030 BKN140 23/16 Q1016 NOSIG
RKPC 242300Z 11006KT 080V140 9999 FEW030 BKN140 22/16 Q1016 NOSIG
RKPC 242200Z 15005KT 9999 FEW030 BKN160 21/15 Q1016 NOSIG
RKPC 242100Z 13006KT 9999 FEW030 BKN160 20/14 Q1015 NOSIG
RKPC 242000Z 13006KT 9999 FEW030 BKN170 20/15 Q1014 NOSIG
RKPC 241900Z 15005KT 9999 FEW030 BKN180 20/14 Q1015 NOSIG
RKPC 241800Z 14005KT 9999 FEW030 BKN180 20/14 Q1015 NOSIG
RKPC 241700Z 15006KT 9999 FEW030 BKN180 20/14 Q1015 NOSIG
RKPC 241600Z 13006KT 9999 FEW030 BKN180 20/13 Q1015 NOSIG
RKPC 241500Z 12005KT 9999 FEW030 BKN180 20/12 Q1016 NOSIG
RKPC 241400Z 08004KT 030V120 9999 FEW030 BKN180 21/14 Q1016 NOSIG
RKPC 241300Z 02009KT 350V050 CAVOK 22/15 Q1016 NOSIG
RKPC 241200Z 01009KT 330V040 CAVOK 22/15 Q1016 NOSIG
RKPC 241100Z 18001KT CAVOK 21/10 Q1016 NOSIG
RKPC 241000Z 17004KT CAVOK 22/10 Q1016 NOSIG
RKPC 240900Z 08002KT CAVOK 22/11 Q1015 NOSIG
RKPC 240800Z 07004KT 020V120 CAVOK 22/11 Q1015 NOSIG
RKPC 240700Z 09004KT CAVOK 22/11 Q1016 NOSIG
RKPC 240600Z 04004KT 360V100 CAVOK 21/11 Q1016 NOSIG
RKPC 240500Z 03005KT 330V070 CAVOK 22/12 Q1017 NOSIG
RKPC 240400Z 03006KT 340V090 CAVOK 22/12 Q1017 NOSIG
RKPC 240300Z 04004KT 360V070 CAVOK 21/11 Q1018 NOSIG
RKPC 240200Z 03005KT 340V090 CAVOK 21/10 Q1018 NOSIG
RKPC 240100Z 05006KT 350V080 9999 FEW030 BKN200 20/11 Q1018 NOSIG
RKPC 240000Z 05006KT 360V070 9999 FEW030 BKN200 21/12 Q1018 NOSIG
RKPC 232300Z 04007KT 360V070 9999 FEW030 BKN200 19/12 Q1018 NOSIG
RKPC 232200Z 05008KT 010V080 9999 SCT030 BKN200 19/12 Q1017 NOSIG
RKPC 232100Z 05008KT 010V080 9999 BKN030 BKN200 19/13 Q1017 NOSIG